»·PEaware :: N235B KLAX-KSNA

N235B :: KLAX-KSNA

FLIGHT INFORMATION

Flight Status: Arrived
Operator: Privately registered:
United States
More flights under this callsign
Pilot: Jason D. (29273)
Aircraft: ECLIPSE 500
(EA50)
More flights by this aircraft type
Origin: KLAX Los Angeles Intl
United States
Destination: KSNA John Wayne-Orange Co
United States
More flights between these airports :: More routes between these airports
Route: +LAXX1 SLI
File this flight plan on PilotEdge
Remarks: I-6 PRACTICE
Altitude:
(Current/Filed)
5,000ft
Speed:
(Current/Filed)
220kts
Departed: 20-Aug-20 11:58 AM
Arrived: 20-Aug-20 12:28 PM
Distance/Time
Traveled:
31nm/0:30
Distance/Time
To Go:
Arrived

Flight Plot

Page will automatically refresh every two minutes.

Flight plan parsing failed; only flown route is shown


Map Options




Map Legend


Flown Route
Filed Route
Departure Airport
Arrival Airport
Navaid (VOR, NDB)
Fix

Horizontal Profiles

Position Reports

Time Latitude Longitude Heading Altitude Ground
Speed
20-Aug-20 11:30 33.941907 -118.384259 270 96ft 0kts
20-Aug-20 11:31 33.941907 -118.384259 270 96ft 0kts
20-Aug-20 11:32 33.941907 -118.384259 270 96ft 0kts
20-Aug-20 11:33 33.941907 -118.384259 270 96ft 0kts
20-Aug-20 11:34 33.941907 -118.384259 270 96ft 0kts
20-Aug-20 11:35 33.941907 -118.384259 270 96ft 0kts
20-Aug-20 11:36 33.941907 -118.384259 270 96ft 0kts
20-Aug-20 11:37 33.941907 -118.384259 270 96ft 0kts
20-Aug-20 11:38 33.941907 -118.384259 270 96ft 0kts
20-Aug-20 11:39 33.941907 -118.384259 270 96ft 0kts
20-Aug-20 11:40 33.941907 -118.384259 270 96ft 0kts
20-Aug-20 11:41 33.941827 -118.384058 95 96ft 5kts
20-Aug-20 11:42 33.940840 -118.387141 263 98ft 18kts
20-Aug-20 11:43 33.940170 -118.394345 264 103ft 23kts
20-Aug-20 11:44 33.939433 -118.401792 263 114ft 21kts
20-Aug-20 11:45 33.938697 -118.408788 264 121ft 21kts
20-Aug-20 11:46 33.938234 -118.412343 224 121ft 0kts
20-Aug-20 11:47 33.938234 -118.412343 224 121ft 0kts
20-Aug-20 11:48 33.938303 -118.412425 6 121ft 6kts
20-Aug-20 11:49 33.938773 -118.408245 83 121ft 15kts
20-Aug-20 11:50 33.939422 -118.401855 83 114ft 23kts
20-Aug-20 11:51 33.940238 -118.393722 82 102ft 20kts
20-Aug-20 11:52 33.940695 -118.388679 83 98ft 11kts
20-Aug-20 11:53 33.941159 -118.384014 83 96ft 23kts
20-Aug-20 11:54 33.940717 -118.380351 127 95ft 0kts
20-Aug-20 11:55 33.940717 -118.380351 127 95ft 0kts
20-Aug-20 11:56 33.940705 -118.380334 131 95ft 0kts
20-Aug-20 11:57 33.938701 -118.392075 263 102ft 131kts
20-Aug-20 11:58 33.933860 -118.439788 263 1850ft 131kts
20-Aug-20 11:59 33.924071 -118.480571 233 3226ft 130kts
20-Aug-20 12:00 33.901133 -118.516154 233 4428ft 159kts
20-Aug-20 12:01 33.865776 -118.571051 233 5001ft 248kts
20-Aug-20 12:02 33.805439 -118.585564 172 4999ft 244kts
20-Aug-20 12:03 33.739158 -118.568955 141 4934ft 245kts
20-Aug-20 12:04 33.701716 -118.500503 122 4957ft 245kts
20-Aug-20 12:05 33.665530 -118.430985 122 4958ft 245kts
20-Aug-20 12:06 33.631794 -118.360057 95 4939ft 244kts
20-Aug-20 12:07 33.641786 -118.280812 80 4935ft 244kts
20-Aug-20 12:08 33.683371 -118.219139 47 4680ft 245kts
20-Aug-20 12:09 33.724801 -118.155856 53 3953ft 239kts
20-Aug-20 12:10 33.763176 -118.089689 55 3935ft 242kts
20-Aug-20 12:11 33.798018 -118.021021 60 3932ft 239kts
20-Aug-20 12:12 33.829490 -117.951543 60 3925ft 219kts
20-Aug-20 12:13 33.853835 -117.898052 60 3930ft 176kts
20-Aug-20 12:14 33.876525 -117.848450 60 3923ft 154kts
20-Aug-20 12:15 33.898213 -117.801002 60 3928ft 163kts
20-Aug-20 12:16 33.919982 -117.752978 60 3932ft 163kts
20-Aug-20 12:17 33.950530 -117.716314 84 3935ft 164kts
20-Aug-20 12:18 33.915647 -117.706771 207 3929ft 166kts
20-Aug-20 12:19 33.876312 -117.730631 207 3336ft 133kts
20-Aug-20 12:20 33.846940 -117.748350 207 3199ft 133kts
20-Aug-20 12:21 33.814296 -117.768249 207 2798ft 104kts
20-Aug-20 12:22 33.792420 -117.784689 217 2300ft 102kts
20-Aug-20 12:23 33.771926 -117.806870 226 1668ft 101kts
20-Aug-20 12:24 33.748471 -117.822415 207 1297ft 109kts
20-Aug-20 12:25 33.718083 -117.842602 204 1150ft 122kts
20-Aug-20 12:26 33.690261 -117.859485 208 296ft 99kts
20-Aug-20 12:27 33.675842 -117.869934 273 59ft 0kts
20-Aug-20 12:28 33.676095 -117.871072 222 59ft 0kts
20-Aug-20 12:29 33.676095 -117.871072 222 59ft 0kts
20-Aug-20 12:30 33.676095 -117.871072 222 59ft 0kts
20-Aug-20 12:31 33.676095 -117.871072 222 59ft 0kts
20-Aug-20 12:32 33.676095 -117.871072 222 59ft 0kts
20-Aug-20 12:33 33.676095 -117.871072 222 59ft 0kts
20-Aug-20 12:34 33.676095 -117.871072 222 59ft 0kts
20-Aug-20 12:35 33.676095 -117.871072 222 59ft 0kts
20-Aug-20 12:36 33.676095 -117.871072 222 59ft 0kts
20-Aug-20 12:37 33.676095 -117.871072 222 59ft 0kts
20-Aug-20 12:38 33.676095 -117.871072 222 59ft 0kts
20-Aug-20 12:39 33.676095 -117.871072 222 59ft 0kts
20-Aug-20 12:40 33.676095 -117.871072 222 59ft 0kts
20-Aug-20 12:41 33.676095 -117.871072 222 59ft 0kts

Navigation Log

Ident Type
Flight plan parsing failed, navigation log unavailable